sensor_id;sensor_type;location;lat;lon;timestamp;temperature;humidity
20366;DHT22;10341;49.894;8.822;2022-08-21T00:00:55;14.70;99.90
20366;DHT22;10341;49.894;8.822;2022-08-21T00:06:15;14.60;99.90
20366;DHT22;10341;49.894;8.822;2022-08-21T00:11:36;14.50;99.90
20366;DHT22;10341;49.894;8.822;2022-08-21T00:16:56;14.40;99.90
20366;DHT22;10341;49.894;8.822;2022-08-21T00:22:15;14.40;99.90
20366;DHT22;10341;49.894;8.822;2022-08-21T00:27:34;14.30;99.90
20366;DHT22;10341;49.894;8.822;2022-08-21T00:32:55;14.20;99.90
20366;DHT22;10341;49.894;8.822;2022-08-21T00:38:14;14.20;99.90
20366;DHT22;10341;49.894;8.822;2022-08-21T00:43:35;14.20;99.90
20366;DHT22;10341;49.894;8.822;2022-08-21T00:48:56;14.20;99.90
20366;DHT22;10341;49.894;8.822;2022-08-21T00:54:16;14.20;99.90
20366;DHT22;10341;49.894;8.822;2022-08-21T00:59:37;14.10;99.90
20366;DHT22;10341;49.894;8.822;2022-08-21T01:04:57;14.10;99.90
20366;DHT22;10341;49.894;8.822;2022-08-21T01:10:17;13.90;99.90
20366;DHT22;10341;49.894;8.822;2022-08-21T01:15:40;13.70;99.90
20366;DHT22;10341;49.894;8.822;2022-08-21T01:26:29;13.40;99.90
20366;DHT22;10341;49.894;8.822;2022-08-21T01:31:49;13.40;99.90
20366;DHT22;10341;49.894;8.822;2022-08-21T01:37:09;13.40;99.90
20366;DHT22;10341;49.894;8.822;2022-08-21T01:42:28;13.30;99.90
20366;DHT22;10341;49.894;8.822;2022-08-21T01:47:47;13.30;99.90
20366;DHT22;10341;49.894;8.822;2022-08-21T01:53:06;13.20;99.90
20366;DHT22;10341;49.894;8.822;2022-08-21T01:58:26;13.10;99.90
20366;DHT22;10341;49.894;8.822;2022-08-21T02:03:45;13.10;99.90
20366;DHT22;10341;49.894;8.822;2022-08-21T02:09:07;13.10;99.90
20366;DHT22;10341;49.894;8.822;2022-08-21T02:14:27;13.10;99.90
20366;DHT22;10341;49.894;8.822;2022-08-21T02:19:46;13.10;99.90
20366;DHT22;10341;49.894;8.822;2022-08-21T02:25:05;13.10;99.90
20366;DHT22;10341;49.894;8.822;2022-08-21T02:30:34;13.10;99.90
20366;DHT22;10341;49.894;8.822;2022-08-21T02:35:54;13.00;99.90
20366;DHT22;10341;49.894;8.822;2022-08-21T02:41:16;13.00;99.90
20366;DHT22;10341;49.894;8.822;2022-08-21T02:46:36;13.00;99.90
20366;DHT22;10341;49.894;8.822;2022-08-21T02:51:55;13.20;99.90
20366;DHT22;10341;49.894;8.822;2022-08-21T02:57:14;13.10;99.90
20366;DHT22;10341;49.894;8.822;2022-08-21T03:02:33;13.00;99.90
20366;DHT22;10341;49.894;8.822;2022-08-21T03:07:54;12.90;99.90
20366;DHT22;10341;49.894;8.822;2022-08-21T03:13:14;12.70;99.90
20366;DHT22;10341;49.894;8.822;2022-08-21T03:18:34;12.60;99.90
20366;DHT22;10341;49.894;8.822;2022-08-21T03:23:54;12.60;99.90
20366;DHT22;10341;49.894;8.822;2022-08-21T03:29:13;12.60;99.90
20366;DHT22;10341;49.894;8.822;2022-08-21T03:34:32;12.80;99.90
20366;DHT22;10341;49.894;8.822;2022-08-21T03:39:52;12.70;99.90
20366;DHT22;10341;49.894;8.822;2022-08-21T03:45:11;12.70;99.90
20366;DHT22;10341;49.894;8.822;2022-08-21T03:50:33;12.80;99.90
20366;DHT22;10341;49.894;8.822;2022-08-21T03:55:52;12.70;99.90
20366;DHT22;10341;49.894;8.822;2022-08-21T04:01:13;12.60;99.90
20366;DHT22;10341;49.894;8.822;2022-08-21T04:06:32;12.50;99.90
20366;DHT22;10341;49.894;8.822;2022-08-21T04:11:52;12.40;99.90
20366;DHT22;10341;49.894;8.822;2022-08-21T04:17:11;12.30;99.90
20366;DHT22;10341;49.894;8.822;2022-08-21T04:22:30;12.20;99.90
20366;DHT22;10341;49.894;8.822;2022-08-21T04:27:49;12.10;99.90
20366;DHT22;10341;49.894;8.822;2022-08-21T04:33:08;12.30;99.90
20366;DHT22;10341;49.894;8.822;2022-08-21T04:38:27;12.20;99.90
20366;DHT22;10341;49.894;8.822;2022-08-21T04:43:46;12.30;99.90
20366;DHT22;10341;49.894;8.822;2022-08-21T04:49:05;12.30;99.90
20366;DHT22;10341;49.894;8.822;2022-08-21T04:54:24;12.30;99.90
20366;DHT22;10341;49.894;8.822;2022-08-21T04:59:49;12.40;99.90
20366;DHT22;10341;49.894;8.822;2022-08-21T05:05:10;12.40;99.90
20366;DHT22;10341;49.894;8.822;2022-08-21T05:10:30;12.50;99.90
20366;DHT22;10341;49.894;8.822;2022-08-21T05:15:50;12.60;99.90
20366;DHT22;10341;49.894;8.822;2022-08-21T05:21:10;12.70;99.90
20366;DHT22;10341;49.894;8.822;2022-08-21T05:26:29;12.70;99.90
20366;DHT22;10341;49.894;8.822;2022-08-21T05:31:48;12.90;99.90
20366;DHT22;10341;49.894;8.822;2022-08-21T05:37:11;13.20;99.90
20366;DHT22;10341;49.894;8.822;2022-08-21T05:42:31;13.50;99.90
20366;DHT22;10341;49.894;8.822;2022-08-21T05:47:50;13.80;99.90
20366;DHT22;10341;49.894;8.822;2022-08-21T05:53:10;14.00;99.90
20366;DHT22;10341;49.894;8.822;2022-08-21T05:58:31;14.20;99.90
20366;DHT22;10341;49.894;8.822;2022-08-21T06:03:51;14.40;99.90
20366;DHT22;10341;49.894;8.822;2022-08-21T06:09:11;14.70;99.90
20366;DHT22;10341;49.894;8.822;2022-08-21T06:14:30;15.00;99.90
20366;DHT22;10341;49.894;8.822;2022-08-21T06:19:53;15.20;99.90
20366;DHT22;10341;49.894;8.822;2022-08-21T06:25:12;15.50;99.90
20366;DHT22;10341;49.894;8.822;2022-08-21T06:30:31;15.80;99.90
20366;DHT22;10341;49.894;8.822;2022-08-21T06:35:51;16.20;99.90
20366;DHT22;10341;49.894;8.822;2022-08-21T06:41:10;16.50;99.90
20366;DHT22;10341;49.894;8.822;2022-08-21T06:46:30;16.80;99.90
20366;DHT22;10341;49.894;8.822;2022-08-21T06:51:50;17.20;99.90
20366;DHT22;10341;49.894;8.822;2022-08-21T06:57:09;17.60;99.90
20366;DHT22;10341;49.894;8.822;2022-08-21T07:02:28;18.00;99.90
20366;DHT22;10341;49.894;8.822;2022-08-21T07:07:48;18.30;99.90
20366;DHT22;10341;49.894;8.822;2022-08-21T07:13:07;18.60;99.90
20366;DHT22;10341;49.894;8.822;2022-08-21T07:18:26;18.80;99.90
20366;DHT22;10341;49.894;8.822;2022-08-21T07:23:50;19.20;99.90
20366;DHT22;10341;49.894;8.822;2022-08-21T07:29:09;19.90;99.90
20366;DHT22;10341;49.894;8.822;2022-08-21T07:34:28;20.30;99.90
20366;DHT22;10341;49.894;8.822;2022-08-21T07:39:47;20.50;99.90
20366;DHT22;10341;49.894;8.822;2022-08-21T07:45:08;20.70;99.90
20366;DHT22;10341;49.894;8.822;2022-08-21T07:50:28;21.10;99.90
20366;DHT22;10341;49.894;8.822;2022-08-21T07:55:47;21.40;99.90
20366;DHT22;10341;49.894;8.822;2022-08-21T08:01:07;21.60;99.90
20366;DHT22;10341;49.894;8.822;2022-08-21T08:06:26;21.90;99.90
20366;DHT22;10341;49.894;8.822;2022-08-21T08:11:45;22.20;99.90
20366;DHT22;10341;49.894;8.822;2022-08-21T08:17:04;22.80;99.90
20366;DHT22;10341;49.894;8.822;2022-08-21T08:22:23;23.20;99.90
20366;DHT22;10341;49.894;8.822;2022-08-21T08:27:42;24.20;99.90
20366;DHT22;10341;49.894;8.822;2022-08-21T08:33:01;25.00;99.90
20366;DHT22;10341;49.894;8.822;2022-08-21T08:38:22;27.30;99.90
20366;DHT22;10341;49.894;8.822;2022-08-21T08:43:48;28.60;98.50
20366;DHT22;10341;49.894;8.822;2022-08-21T08:49:22;29.90;96.00
20366;DHT22;10341;49.894;8.822;2022-08-21T08:54:45;31.00;92.80
20366;DHT22;10341;49.894;8.822;2022-08-21T09:00:10;31.80;90.60
20366;DHT22;10341;49.894;8.822;2022-08-21T09:05:46;33.50;88.20
20366;DHT22;10341;49.894;8.822;2022-08-21T09:17:19;34.90;79.60
20366;DHT22;10341;49.894;8.822;2022-08-21T09:28:26;31.50;85.90
20366;DHT22;10341;49.894;8.822;2022-08-21T09:33:45;29.00;89.80
20366;DHT22;10341;49.894;8.822;2022-08-21T09:39:05;27.60;92.30
20366;DHT22;10341;49.894;8.822;2022-08-21T09:44:27;28.00;90.80
20366;DHT22;10341;49.894;8.822;2022-08-21T09:49:47;30.60;88.10
20366;DHT22;10341;49.894;8.822;2022-08-21T09:55:21;33.00;83.40
20366;DHT22;10341;49.894;8.822;2022-08-21T10:01:03;33.40;79.00
20366;DHT22;10341;49.894;8.822;2022-08-21T10:06:26;34.60;73.30
20366;DHT22;10341;49.894;8.822;2022-08-21T10:12:19;33.50;75.50
20366;DHT22;10341;49.894;8.822;2022-08-21T10:17:59;34.50;71.60
20366;DHT22;10341;49.894;8.822;2022-08-21T10:45:19;34.90;67.30
20366;DHT22;10341;49.894;8.822;2022-08-21T10:51:20;34.90;65.60
20366;DHT22;10341;49.894;8.822;2022-08-21T10:56:41;35.30;64.30
20366;DHT22;10341;49.894;8.822;2022-08-21T11:02:20;35.70;65.40
20366;DHT22;10341;49.894;8.822;2022-08-21T11:07:51;34.90;64.40
20366;DHT22;10341;49.894;8.822;2022-08-21T11:13:44;32.20;68.10
20366;DHT22;10341;49.894;8.822;2022-08-21T11:19:25;33.90;66.10
20366;DHT22;10341;49.894;8.822;2022-08-21T11:25:17;35.00;61.10
20366;DHT22;10341;49.894;8.822;2022-08-21T11:53:33;35.60;60.90
20366;DHT22;10341;49.894;8.822;2022-08-21T11:59:02;35.80;61.10
20366;DHT22;10341;49.894;8.822;2022-08-21T12:04:27;35.60;61.30
20366;DHT22;10341;49.894;8.822;2022-08-21T12:09:56;35.80;59.00
20366;DHT22;10341;49.894;8.822;2022-08-21T12:20:58;35.40;58.00
20366;DHT22;10341;49.894;8.822;2022-08-21T12:26:24;34.60;59.10
20366;DHT22;10341;49.894;8.822;2022-08-21T12:37:20;33.50;60.70
20366;DHT22;10341;49.894;8.822;2022-08-21T12:42:47;33.20;64.30
20366;DHT22;10341;49.894;8.822;2022-08-21T12:49:11;34.20;59.70
20366;DHT22;10341;49.894;8.822;2022-08-21T12:53:59;34.20;59.90
20366;DHT22;10341;49.894;8.822;2022-08-21T12:59:19;34.60;61.30
20366;DHT22;10341;49.894;8.822;2022-08-21T13:04:40;34.70;59.60
20366;DHT22;10341;49.894;8.822;2022-08-21T13:10:23;34.70;59.60
20366;DHT22;10341;49.894;8.822;2022-08-21T13:15:43;34.40;58.30
20366;DHT22;10341;49.894;8.822;2022-08-21T13:26:24;34.10;60.10
20366;DHT22;10341;49.894;8.822;2022-08-21T13:31:59;34.90;60.20
20366;DHT22;10341;49.894;8.822;2022-08-21T13:37:27;35.20;59.80
20366;DHT22;10341;49.894;8.822;2022-08-21T13:42:48;35.00;59.80
20366;DHT22;10341;49.894;8.822;2022-08-21T13:48:07;35.20;59.30
20366;DHT22;10341;49.894;8.822;2022-08-21T13:59:02;36.70;57.90
20366;DHT22;10341;49.894;8.822;2022-08-21T14:04:25;36.40;58.50
20366;DHT22;10341;49.894;8.822;2022-08-21T14:09:46;35.70;58.90
20366;DHT22;10341;49.894;8.822;2022-08-21T14:15:06;35.60;57.80
20366;DHT22;10341;49.894;8.822;2022-08-21T14:20:35;35.10;58.10
20366;DHT22;10341;49.894;8.822;2022-08-21T14:25:59;33.40;59.10
20366;DHT22;10341;49.894;8.822;2022-08-21T14:31:21;32.70;59.80
20366;DHT22;10341;49.894;8.822;2022-08-21T14:36:40;32.10;60.90
20366;DHT22;10341;49.894;8.822;2022-08-21T14:42:00;31.40;62.10
20366;DHT22;10341;49.894;8.822;2022-08-21T14:47:20;30.80;63.10
20366;DHT22;10341;49.894;8.822;2022-08-21T14:52:39;31.80;63.00
20366;DHT22;10341;49.894;8.822;2022-08-21T14:58:00;33.30;59.70
20366;DHT22;10341;49.894;8.822;2022-08-21T15:03:20;34.20;57.70
20366;DHT22;10341;49.894;8.822;2022-08-21T15:08:41;34.40;58.90
20366;DHT22;10341;49.894;8.822;2022-08-21T15:14:02;34.90;58.80
20366;DHT22;10341;49.894;8.822;2022-08-21T15:19:22;34.50;56.40
20366;DHT22;10341;49.894;8.822;2022-08-21T15:24:41;34.90;56.50
20366;DHT22;10341;49.894;8.822;2022-08-21T15:30:03;35.00;56.60
20366;DHT22;10341;49.894;8.822;2022-08-21T15:35:23;34.60;57.20
20366;DHT22;10341;49.894;8.822;2022-08-21T15:40:43;34.60;57.70
20366;DHT22;10341;49.894;8.822;2022-08-21T15:46:04;33.70;59.00
20366;DHT22;10341;49.894;8.822;2022-08-21T15:51:24;33.60;59.20
20366;DHT22;10341;49.894;8.822;2022-08-21T15:56:46;34.40;58.30
20366;DHT22;10341;49.894;8.822;2022-08-21T16:02:24;34.50;57.90
20366;DHT22;10341;49.894;8.822;2022-08-21T16:07:46;34.20;59.30
20366;DHT22;10341;49.894;8.822;2022-08-21T16:13:11;33.60;58.90
20366;DHT22;10341;49.894;8.822;2022-08-21T16:18:31;32.60;59.30
20366;DHT22;10341;49.894;8.822;2022-08-21T16:23:50;32.90;59.10
20366;DHT22;10341;49.894;8.822;2022-08-21T16:29:10;32.40;59.30
20366;DHT22;10341;49.894;8.822;2022-08-21T16:34:29;32.20;59.10
20366;DHT22;10341;49.894;8.822;2022-08-21T16:39:49;31.70;61.90
20366;DHT22;10341;49.894;8.822;2022-08-21T16:45:14;31.50;59.80
20366;DHT22;10341;49.894;8.822;2022-08-21T16:50:35;31.30;60.00
20366;DHT22;10341;49.894;8.822;2022-08-21T16:55:56;30.80;62.60
20366;DHT22;10341;49.894;8.822;2022-08-21T17:01:19;30.40;62.60
20366;DHT22;10341;49.894;8.822;2022-08-21T17:06:39;30.50;64.20
20366;DHT22;10341;49.894;8.822;2022-08-21T17:11:58;30.20;63.30
20366;DHT22;10341;49.894;8.822;2022-08-21T17:17:17;29.90;75.20
20366;DHT22;10341;49.894;8.822;2022-08-21T17:22:36;29.20;71.90
20366;DHT22;10341;49.894;8.822;2022-08-21T17:27:56;28.50;73.20
20366;DHT22;10341;49.894;8.822;2022-08-21T17:33:16;27.70;77.00
20366;DHT22;10341;49.894;8.822;2022-08-21T17:38:37;27.00;79.60
20366;DHT22;10341;49.894;8.822;2022-08-21T17:43:56;26.40;80.90
20366;DHT22;10341;49.894;8.822;2022-08-21T17:49:16;25.70;83.80
20366;DHT22;10341;49.894;8.822;2022-08-21T17:54:36;25.20;87.80
20366;DHT22;10341;49.894;8.822;2022-08-21T17:59:55;24.70;87.90
20366;DHT22;10341;49.894;8.822;2022-08-21T18:05:14;24.20;89.90
20366;DHT22;10341;49.894;8.822;2022-08-21T18:10:34;23.90;91.70
20366;DHT22;10341;49.894;8.822;2022-08-21T18:15:55;23.50;91.50
20366;DHT22;10341;49.894;8.822;2022-08-21T18:21:15;23.20;94.40
20366;DHT22;10341;49.894;8.822;2022-08-21T18:26:36;22.90;95.50
20366;DHT22;10341;49.894;8.822;2022-08-21T18:31:56;22.50;95.60
20366;DHT22;10341;49.894;8.822;2022-08-21T18:37:16;22.20;95.60
20366;DHT22;10341;49.894;8.822;2022-08-21T18:42:39;21.90;98.10
20366;DHT22;10341;49.894;8.822;2022-08-21T18:47:58;21.70;97.30
20366;DHT22;10341;49.894;8.822;2022-08-21T18:53:19;21.40;99.60
20366;DHT22;10341;49.894;8.822;2022-08-21T18:58:39;21.10;99.60
20366;DHT22;10341;49.894;8.822;2022-08-21T19:04:00;20.90;99.90
20366;DHT22;10341;49.894;8.822;2022-08-21T19:09:20;20.70;99.90
20366;DHT22;10341;49.894;8.822;2022-08-21T19:14:39;20.40;99.90
20366;DHT22;10341;49.894;8.822;2022-08-21T19:20:02;20.10;99.90
20366;DHT22;10341;49.894;8.822;2022-08-21T19:25:24;19.90;99.90
20366;DHT22;10341;49.894;8.822;2022-08-21T19:30:52;19.70;99.90
20366;DHT22;10341;49.894;8.822;2022-08-21T19:36:13;19.60;99.90
20366;DHT22;10341;49.894;8.822;2022-08-21T19:41:35;19.40;99.90
20366;DHT22;10341;49.894;8.822;2022-08-21T19:46:56;19.20;99.90
20366;DHT22;10341;49.894;8.822;2022-08-21T19:52:16;19.10;99.90
20366;DHT22;10341;49.894;8.822;2022-08-21T19:57:37;18.90;99.90
20366;DHT22;10341;49.894;8.822;2022-08-21T20:02:56;18.90;99.90
20366;DHT22;10341;49.894;8.822;2022-08-21T20:08:15;18.70;99.90
20366;DHT22;10341;49.894;8.822;2022-08-21T20:13:35;18.70;99.90
20366;DHT22;10341;49.894;8.822;2022-08-21T20:18:55;18.50;99.90
20366;DHT22;10341;49.894;8.822;2022-08-21T20:24:15;18.30;99.90
20366;DHT22;10341;49.894;8.822;2022-08-21T20:29:36;18.10;99.90
20366;DHT22;10341;49.894;8.822;2022-08-21T20:34:56;17.90;99.90
20366;DHT22;10341;49.894;8.822;2022-08-21T20:40:16;17.80;99.90
20366;DHT22;10341;49.894;8.822;2022-08-21T20:45:36;17.60;99.90
20366;DHT22;10341;49.894;8.822;2022-08-21T21:08:43;17.20;99.90
20366;DHT22;10341;49.894;8.822;2022-08-21T21:14:10;17.20;99.90
20366;DHT22;10341;49.894;8.822;2022-08-21T21:19:48;17.00;99.90
20366;DHT22;10341;49.894;8.822;2022-08-21T21:25:18;16.70;99.90
20366;DHT22;10341;49.894;8.822;2022-08-21T21:30:42;16.60;99.90
20366;DHT22;10341;49.894;8.822;2022-08-21T21:36:12;16.50;99.90
20366;DHT22;10341;49.894;8.822;2022-08-21T21:47:09;16.10;99.90
20366;DHT22;10341;49.894;8.822;2022-08-21T22:04:01;15.90;99.90
20366;DHT22;10341;49.894;8.822;2022-08-21T22:15:00;15.70;99.90
20366;DHT22;10341;49.894;8.822;2022-08-21T22:20:32;15.60;99.90
20366;DHT22;10341;49.894;8.822;2022-08-21T22:26:01;15.40;99.90
20366;DHT22;10341;49.894;8.822;2022-08-21T22:31:24;15.40;99.90
20366;DHT22;10341;49.894;8.822;2022-08-21T22:36:47;15.20;99.90
20366;DHT22;10341;49.894;8.822;2022-08-21T22:42:21;15.10;99.90
20366;DHT22;10341;49.894;8.822;2022-08-21T22:47:43;15.00;99.90
20366;DHT22;10341;49.894;8.822;2022-08-21T22:53:07;14.90;99.90
20366;DHT22;10341;49.894;8.822;2022-08-21T22:58:31;14.90;99.90
20366;DHT22;10341;49.894;8.822;2022-08-21T23:03:56;14.80;99.90
20366;DHT22;10341;49.894;8.822;2022-08-21T23:09:40;14.60;99.90
20366;DHT22;10341;49.894;8.822;2022-08-21T23:15:11;14.60;99.90
20366;DHT22;10341;49.894;8.822;2022-08-21T23:20:37;14.60;99.90
20366;DHT22;10341;49.894;8.822;2022-08-21T23:31:47;14.30;99.90
20366;DHT22;10341;49.894;8.822;2022-08-21T23:37:23;14.10;99.90
20366;DHT22;10341;49.894;8.822;2022-08-21T23:43:24;14.10;99.90
20366;DHT22;10341;49.894;8.822;2022-08-21T23:48:54;14.00;99.90
20366;DHT22;10341;49.894;8.822;2022-08-21T23:54:30;14.00;99.90
